Webcam mot vest more information Webcam facing west


BeaufortBeaufort


Du finner stasjonens værinfo også på:

European Weather Network

WeatherCloud

Weather Underground

HAMweather, WeatherForYou, PWS Weather


Programvare vi bruker:

Weather Display

Leuven-Template 2.8

One.com

Værrapport fra de nærmeste flyplassene

   
ENEV - Evenes Lufthavn, (Harstad, Narvik), Norway
Oppdatert: 21-05-2018 06:50
Lett Regn, For det meste Overskyet  
Lett Regn, For det meste Overskyet  
   Vind vester√•len: VSV 4.6 m/s<br />Gust to 4.6 m/s
Vind vesterålen: VSV 4.6 m/s
Gust to 4.6 m/s
Temperatur: 8°C
Wind Chill: 5°C
Duggpunkt: 7°C
Luftfuktighet: 93%
Lufttrykk: 1014 hPa
Skyer: For det meste Overskyet
Sikt: 5 km
Detaljer skyer: Noen skyer 91.4 m,
Partly Cloudy 152.4 m,
For det meste Overskyet 243.8 m
ENEV 210450Z 25009G22KT 200V300 5000 -RA FEW003 SCT005 BKN008 08/07 Q1014 RMK WIND 1400FT 24028KT
ENSK - Stokmarknes Lufthavn, VesterŚlen,Norway
Oppdatert: 01-01-1970 01:00
Oppdatert, se klokkeslett
  
  
   Vind vester√•len: Stille
Vind vesterålen: Stille
ENAN - Andenes Lufthavn, VesterŚlen, Norway
Oppdatert: 21-05-2018 06:50
Overskyet  
Overskyet  
   Vind vester√•len: VSV 7.7 m/s
Vind vesterålen: VSV 7.7 m/s
Temperatur: 7°C
Wind Chill: 3°C
Duggpunkt: 4°C
Luftfuktighet: 81%
Lufttrykk: 1012 hPa
Skyer: Overskyet
Sikt: Mer enn 10 km
Detaljer skyer: Noen skyer 152.4 m,
Overskyet 1371.6 m
ENAN 210450Z AUTO 25015KT 210V280 9999 FEW005/// OVC045/// 07/04 Q1012 RERA
ENLK - Leknes Lufthavn, Lofoten, Norway
Oppdatert: 20-05-2018 21:50
Oppdatert, se klokkeslett
Regn, For det meste Overskyet  
Regn, For det meste Overskyet  
   Vind vester√•len: S√łr 6.2 m/s
Vind vester√•len: S√łr 6.2 m/s
Temperatur: 8°C
Wind Chill: 4°C
Duggpunkt: 8°C
Luftfuktighet: 100%
Lufttrykk: 1012 hPa
Skyer: For det meste Overskyet
Sikt: 8 km
Detaljer skyer: Noen skyer 152.4 m,
Partly Cloudy 457.2 m,
For det meste Overskyet 609.6 m
ENLK 201950Z 18012KT 8000 RA FEW005 SCT015 BKN020 08/08 Q1012
ENSH - Svolvśr, Helle, Lofoten, Norway
Oppdatert: 20-05-2018 20:50
Oppdatert, se klokkeslett
Heavy Rain, For det meste Overskyet  
Heavy Rain, For det meste Overskyet  
   Vind vester√•len: SV 5.7 m/s
Vind vesterålen: SV 5.7 m/s
Temperatur: 7°C
Wind Chill: 3°C
Duggpunkt: 7°C
Luftfuktighet: 100%
Lufttrykk: 1012 hPa
Skyer: For det meste Overskyet
Sikt: 3 km
Detaljer skyer: Partly Cloudy 91.4 m,
For det meste Overskyet 121.9 m
ENSH 201850Z 22011KT 3000 +RA SCT003 BKN004 07/07 Q1012 RMK WIND 150FT 20018G34KT 170V270
ENBO - BodÝ Lufthavn, Norway
Oppdatert: 21-05-2018 06:50
Lett Regn, For det meste Overskyet  
Lett Regn, For det meste Overskyet  
   Vind vester√•len: SV 10.8 m/s
Vind vesterålen: SV 10.8 m/s
Temperatur: 9°C
Wind Chill: 4°C
Duggpunkt: 9°C
Luftfuktighet: 100%
Lufttrykk: 1016 hPa
Skyer: For det meste Overskyet
Sikt: Mer enn 10 km
Detaljer skyer: Noen skyer 365.8 m,
For det meste Overskyet 762 m
ENBO 210450Z 22021KT 9999 -RA FEW012 BKN025 09/09 Q1016 TEMPO 3000 DZRA BKN006

Script utviklet av  Saratoga-weather.org Tilpasset for tamplaten av  Weerstation Leuven